createdAt,value
2019-02-19T00:00:03.421Z,1000.61
2019-02-19T00:05:04.991Z,1000.65
2019-02-19T00:10:02.274Z,1000.69
2019-02-19T00:15:09.544Z,1000.68
2019-02-19T00:20:07.993Z,1000.7
2019-02-19T00:25:10.270Z,1000.65
2019-02-19T00:30:03.848Z,1000.63
2019-02-19T00:35:09.540Z,1000.63
2019-02-19T00:40:07.754Z,1000.59
2019-02-19T00:45:04.383Z,1000.6
2019-02-19T00:50:08.233Z,1000.56
2019-02-19T00:55:07.448Z,1000.57
2019-02-19T01:00:03.987Z,1000.47
2019-02-19T01:05:07.197Z,1000.46
2019-02-19T01:10:06.614Z,1000.53
2019-02-19T01:15:05.703Z,1000.54
2019-02-19T01:20:07.996Z,1000.49
2019-02-19T01:25:07.030Z,1000.61
2019-02-19T01:30:03.675Z,1000.65
2019-02-19T01:35:06.692Z,1000.64
2019-02-19T01:40:07.558Z,1000.6
2019-02-19T01:45:04.019Z,1000.65
2019-02-19T01:50:05.976Z,1000.63
2019-02-19T01:55:07.641Z,1000.61
2019-02-19T02:00:04.316Z,1000.64
2019-02-19T02:05:06.918Z,1000.68
2019-02-19T02:10:07.772Z,1000.65
2019-02-19T02:15:04.383Z,1000.62
2019-02-19T02:20:05.896Z,1000.65
2019-02-19T02:25:05.235Z,1000.78
2019-02-19T02:30:07.563Z,1000.82
2019-02-19T02:35:11.521Z,1000.77
2019-02-19T02:40:15.026Z,1000.83
2019-02-19T02:45:07.329Z,1000.84
2019-02-19T02:50:06.962Z,1000.78
2019-02-19T02:55:06.974Z,1000.8
2019-02-19T03:00:04.469Z,1000.82
2019-02-19T03:05:06.245Z,1000.84
2019-02-19T03:10:07.124Z,1000.94
2019-02-19T03:15:02.976Z,1001.01
2019-02-19T03:20:09.487Z,1000.9
2019-02-19T03:25:11.444Z,1000.83
2019-02-19T03:30:09.424Z,1000.8
2019-02-19T03:35:11.685Z,1000.94
2019-02-19T03:40:13.200Z,1000.89
2019-02-19T03:45:10.100Z,1000.97
2019-02-19T03:50:12.211Z,1001.12
2019-02-19T03:55:06.740Z,1001.1
2019-02-19T04:00:07.557Z,1001.11
2019-02-19T04:05:07.332Z,1001.16
2019-02-19T04:10:05.002Z,1001.22
2019-02-19T04:15:09.214Z,1001.22
2019-02-19T04:20:07.417Z,1001.27
2019-02-19T04:25:07.739Z,1001.42
2019-02-19T04:30:03.178Z,1001.44
2019-02-19T04:35:06.049Z,1001.41
2019-02-19T04:40:06.947Z,1001.4
2019-02-19T04:45:03.379Z,1001.38
2019-02-19T04:50:06.451Z,1001.42
2019-02-19T04:55:07.862Z,1001.5
2019-02-19T05:00:03.278Z,1001.55
2019-02-19T05:05:06.849Z,1001.6
2019-02-19T05:10:06.986Z,1001.62
2019-02-19T05:15:03.416Z,1001.61
2019-02-19T05:20:07.061Z,1001.55
2019-02-19T05:25:07.784Z,1001.59
2019-02-19T05:30:03.311Z,1001.67
2019-02-19T05:35:07.159Z,1001.64
2019-02-19T05:40:05.622Z,1001.64
2019-02-19T05:45:03.138Z,1001.7
2019-02-19T05:50:05.366Z,1001.69
2019-02-19T05:55:05.743Z,1001.58
2019-02-19T06:00:04.444Z,1001.55
2019-02-19T06:05:06.012Z,1001.58
2019-02-19T06:10:05.526Z,1001.7
2019-02-19T06:15:03.040Z,1001.87
2019-02-19T06:20:05.077Z,1002.08
2019-02-19T06:25:04.296Z,1002.22
2019-02-19T06:30:02.795Z,1002.26
2019-02-19T06:35:04.494Z,1002.19
2019-02-19T06:40:04.639Z,1002.25
2019-02-19T06:45:03.043Z,1002.34
2019-02-19T06:50:05.195Z,1002.42
2019-02-19T06:55:06.945Z,1002.48
2019-02-19T07:00:04.607Z,1002.61
2019-02-19T07:05:06.744Z,1002.54
2019-02-19T07:10:03.412Z,1002.65
2019-02-19T07:15:07.940Z,1002.71
2019-02-19T07:20:06.599Z,1002.71
2019-02-19T07:25:07.954Z,1002.77
2019-02-19T07:30:04.475Z,1002.81
2019-02-19T07:35:07.434Z,1002.97
2019-02-19T07:40:10.106Z,1003.03
2019-02-19T07:45:03.721Z,1003.12
2019-02-19T07:50:08.244Z,1003.19
2019-02-19T07:55:07.655Z,1003.22
2019-02-19T08:00:04.548Z,1003.29
2019-02-19T08:05:07.797Z,1003.3
2019-02-19T08:10:06.721Z,1003.31
2019-02-19T08:15:04.647Z,1003.41
2019-02-19T08:20:16.255Z,1003.45
2019-02-19T08:25:07.514Z,1003.52
2019-02-19T08:30:04.102Z,1003.55
2019-02-19T08:35:05.851Z,1003.59
2019-02-19T08:40:07.151Z,1003.6
2019-02-19T08:45:03.968Z,1003.66
2019-02-19T08:50:06.574Z,1003.71
2019-02-19T08:55:07.062Z,1003.77
2019-02-19T09:00:03.715Z,1003.84
2019-02-19T09:05:06.542Z,1003.9
2019-02-19T09:10:07.291Z,1003.91
2019-02-19T09:15:03.854Z,1003.95
2019-02-19T09:20:08.068Z,1004.02
2019-02-19T09:25:07.278Z,1004.03
2019-02-19T09:30:03.928Z,1004.13
2019-02-19T09:35:07.256Z,1004.13
2019-02-19T09:40:07.717Z,1004.06
2019-02-19T09:45:03.724Z,1004.04
2019-02-19T09:50:06.977Z,1004.04
2019-02-19T09:55:10.065Z,1004.14
2019-02-19T10:00:03.589Z,1004.08
2019-02-19T10:05:09.771Z,1004.18
2019-02-19T10:10:08.657Z,1004.16
2019-02-19T10:15:03.098Z,1004.12
2019-02-19T10:20:09.002Z,1004.16
2019-02-19T10:25:07.507Z,1004.19
2019-02-19T10:30:02.994Z,1004.18
2019-02-19T10:35:08.922Z,1004.14
2019-02-19T10:40:07.963Z,1004.17
2019-02-19T10:45:03.412Z,1004.18
2019-02-19T10:50:09.305Z,1004.21
2019-02-19T10:55:07.300Z,1004.21
2019-02-19T11:00:02.869Z,1004.11
2019-02-19T11:05:08.923Z,1004.11
2019-02-19T11:10:08.066Z,1004.13
2019-02-19T11:15:02.612Z,1004.09
2019-02-19T11:20:07.383Z,1004.04
2019-02-19T11:25:07.904Z,1004.01
2019-02-19T11:30:03.370Z,1003.95
2019-02-19T11:35:07.409Z,1003.95
2019-02-19T11:40:06.270Z,1003.9
2019-02-19T11:45:02.824Z,1003.89
2019-02-19T11:50:06.371Z,1003.9
2019-02-19T11:55:06.991Z,1003.8
2019-02-19T12:00:03.422Z,1003.75
2019-02-19T12:05:07.201Z,1003.69
2019-02-19T12:10:05.414Z,1003.74
2019-02-19T12:15:02.918Z,1003.72
2019-02-19T12:20:06.545Z,1003.83
2019-02-19T12:25:05.990Z,1003.81
2019-02-19T12:30:03.448Z,1003.82
2019-02-19T12:35:05.315Z,1003.8
2019-02-19T12:40:06.857Z,1003.77
2019-02-19T12:45:03.890Z,1003.79
2019-02-19T12:50:06.078Z,1003.76
2019-02-19T12:55:06.658Z,1003.77
2019-02-19T13:00:03.758Z,1003.75
2019-02-19T13:05:05.620Z,1003.7
2019-02-19T13:10:07.801Z,1003.73
2019-02-19T13:15:03.935Z,1003.77
2019-02-19T13:20:07.729Z,1003.78
2019-02-19T13:25:06.350Z,1003.68
2019-02-19T13:30:03.437Z,1003.71
2019-02-19T13:35:07.173Z,1003.73
2019-02-19T13:40:05.904Z,1003.75
2019-02-19T13:45:04.880Z,1003.76
2019-02-19T13:50:09.674Z,1003.77
2019-02-19T13:55:07.693Z,1003.79
2019-02-19T14:00:04.250Z,1003.78
2019-02-19T14:05:08.677Z,1003.91
2019-02-19T14:10:08.031Z,1003.86
2019-02-19T14:15:03.968Z,1003.91
2019-02-19T14:20:07.946Z,1003.84
2019-02-19T14:25:07.802Z,1003.91
2019-02-19T14:30:04.433Z,1003.94
2019-02-19T14:35:06.197Z,1003.93
2019-02-19T14:40:13.122Z,1003.94
2019-02-19T14:45:03.858Z,1003.91
2019-02-19T14:50:07.159Z,1003.93
2019-02-19T14:55:06.921Z,1003.97
2019-02-19T15:00:04.004Z,1003.92
2019-02-19T15:05:06.630Z,1003.93
2019-02-19T15:10:07.407Z,1003.94
2019-02-19T15:15:04.147Z,1003.87
2019-02-19T15:20:06.639Z,1003.91
2019-02-19T15:25:07.471Z,1003.89
2019-02-19T15:30:04.252Z,1003.87
2019-02-19T15:35:07.296Z,1003.98
2019-02-19T15:40:08.112Z,1004.02
2019-02-19T15:45:03.577Z,1004.02
2019-02-19T15:50:06.932Z,1004.07
2019-02-19T15:55:09.611Z,1004.06
2019-02-19T16:00:04.202Z,1004.01
2019-02-19T16:05:12.299Z,1004.05
2019-02-19T16:10:03.242Z,1004.1
2019-02-19T16:15:04.652Z,1004.12
2019-02-19T16:20:24.520Z,1004.09
2019-02-19T16:25:14.357Z,1004.13
2019-02-19T16:30:14.205Z,1004.15
2019-02-19T16:35:05.517Z,1004.15
2019-02-19T16:40:09.351Z,1004.2
2019-02-19T16:45:10.314Z,1004.23
2019-02-19T16:50:10.674Z,1004.22
2019-02-19T16:55:07.354Z,1004.31
2019-02-19T17:00:02.957Z,1004.28
2019-02-19T17:05:07.526Z,1004.33
2019-02-19T17:10:03.414Z,1004.36
2019-02-19T17:15:06.518Z,1004.41
2019-02-19T17:25:08.015Z,1004.47
2019-02-19T17:30:02.557Z,1004.51
2019-02-19T17:35:08.935Z,1004.6
2019-02-19T17:40:07.932Z,1004.66
2019-02-19T17:45:03.394Z,1004.71
2019-02-19T17:50:06.162Z,1004.76
2019-02-19T17:55:05.209Z,1004.77
2019-02-19T18:00:03.951Z,1004.85
2019-02-19T18:05:04.723Z,1004.95
2019-02-19T18:10:04.611Z,1004.99
2019-02-19T18:15:05.570Z,1005.01
2019-02-19T18:20:11.609Z,1005.03
2019-02-19T18:25:07.943Z,1005.03
2019-02-19T18:30:06.702Z,1005.11
2019-02-19T18:35:06.980Z,1005.14
2019-02-19T18:40:09.802Z,1005.16
2019-02-19T18:45:04.213Z,1005.17
2019-02-19T18:50:06.610Z,1005.17
2019-02-19T18:55:09.338Z,1005.21
2019-02-19T19:00:04.059Z,1005.17
2019-02-19T19:05:07.320Z,1005.18
2019-02-19T19:10:02.956Z,1005.21
2019-02-19T19:15:07.179Z,1005.18
2019-02-19T19:20:08.885Z,1005.2
2019-02-19T19:25:10.454Z,1005.27
2019-02-19T19:30:04.011Z,1005.24
2019-02-19T19:35:08.902Z,1005.31
2019-02-19T19:40:07.837Z,1005.34
2019-02-19T19:45:04.265Z,1005.35
2019-02-19T19:50:08.736Z,1005.37
2019-02-19T19:55:07.770Z,1005.42
2019-02-19T20:00:04.602Z,1005.39
2019-02-19T20:05:09.177Z,1005.43
2019-02-19T20:10:06.629Z,1005.44
2019-02-19T20:15:04.186Z,1005.41
2019-02-19T20:20:06.895Z,1005.41
2019-02-19T20:25:06.941Z,1005.4
2019-02-19T20:30:04.323Z,1005.45
2019-02-19T20:35:06.178Z,1005.49
2019-02-19T20:40:06.690Z,1005.47
2019-02-19T20:45:03.199Z,1005.56
2019-02-19T20:50:05.913Z,1005.61
2019-02-19T20:55:07.453Z,1005.6
2019-02-19T21:00:03.378Z,1005.66
2019-02-19T21:05:06.740Z,1005.66
2019-02-19T21:10:04.982Z,1005.66
2019-02-19T21:15:08.332Z,1005.72
2019-02-19T21:20:12.452Z,1005.69
2019-02-19T21:25:13.123Z,1005.7
2019-02-19T21:30:05.950Z,1005.71
2019-02-19T21:35:15.683Z,1005.65
2019-02-19T21:40:07.333Z,1005.63
2019-02-19T21:45:05.172Z,1005.67
2019-02-19T21:50:06.961Z,1005.63
2019-02-19T21:55:07.264Z,1005.66
2019-02-19T22:00:04.125Z,1005.7
2019-02-19T22:05:04.021Z,1005.68
2019-02-19T22:10:02.799Z,1005.67
2019-02-19T22:15:03.206Z,1005.68
2019-02-19T22:20:04.918Z,1005.7
2019-02-19T22:25:05.360Z,1005.69
2019-02-19T22:30:03.941Z,1005.65
2019-02-19T22:35:06.724Z,1005.7
2019-02-19T22:40:07.703Z,1005.79
2019-02-19T22:45:04.203Z,1005.69
2019-02-19T22:50:07.190Z,1005.71
2019-02-19T22:55:07.272Z,1005.72
2019-02-19T23:00:03.893Z,1005.75
2019-02-19T23:05:06.661Z,1005.81
2019-02-19T23:10:03.827Z,1005.8
2019-02-19T23:15:08.031Z,1005.85
2019-02-19T23:20:06.655Z,1005.92
2019-02-19T23:25:07.800Z,1005.94
2019-02-19T23:30:04.384Z,1005.92
2019-02-19T23:35:08.874Z,1005.9
2019-02-19T23:40:09.261Z,1006
2019-02-19T23:45:05.078Z,1005.96
2019-02-19T23:50:09.028Z,1005.92
2019-02-19T23:55:07.178Z,1005.99
